sensor_id;sensor_type;location;lat;lon;timestamp;pressure;altitude;pressure_sealevel;temperature
11728;BMP180;5920;49.166;8.624;2022-09-09T00:02:08;99889.00;;;18.10
11728;BMP180;5920;49.166;8.624;2022-09-09T00:04:38;99888.00;;;18.10
11728;BMP180;5920;49.166;8.624;2022-09-09T00:07:07;99889.00;;;18.10
11728;BMP180;5920;49.166;8.624;2022-09-09T00:09:39;99883.00;;;17.90
11728;BMP180;5920;49.166;8.624;2022-09-09T00:12:10;99880.00;;;17.80
11728;BMP180;5920;49.166;8.624;2022-09-09T00:14:37;99904.00;;;17.70
11728;BMP180;5920;49.166;8.624;2022-09-09T00:17:06;99884.00;;;17.60
11728;BMP180;5920;49.166;8.624;2022-09-09T00:19:37;99884.00;;;17.50
11728;BMP180;5920;49.166;8.624;2022-09-09T00:22:12;99880.00;;;17.40
11728;BMP180;5920;49.166;8.624;2022-09-09T00:24:41;99882.00;;;17.40
11728;BMP180;5920;49.166;8.624;2022-09-09T00:27:08;99888.00;;;17.50
11728;BMP180;5920;49.166;8.624;2022-09-09T00:29:39;99879.00;;;17.60
11728;BMP180;5920;49.166;8.624;2022-09-09T00:32:11;99888.00;;;17.70
11728;BMP180;5920;49.166;8.624;2022-09-09T00:34:38;99877.00;;;17.90
11728;BMP180;5920;49.166;8.624;2022-09-09T00:37:09;99875.00;;;17.90
11728;BMP180;5920;49.166;8.624;2022-09-09T00:39:36;99881.00;;;17.90
11728;BMP180;5920;49.166;8.624;2022-09-09T00:42:09;99872.00;;;17.80
11728;BMP180;5920;49.166;8.624;2022-09-09T00:44:37;99874.00;;;17.70
11728;BMP180;5920;49.166;8.624;2022-09-09T00:47:09;99870.00;;;17.70
11728;BMP180;5920;49.166;8.624;2022-09-09T00:49:40;99884.00;;;17.70
11728;BMP180;5920;49.166;8.624;2022-09-09T00:52:20;99890.00;;;17.70
11728;BMP180;5920;49.166;8.624;2022-09-09T00:54:51;99884.00;;;17.60
11728;BMP180;5920;49.166;8.624;2022-09-09T00:57:23;99892.00;;;17.50
11728;BMP180;5920;49.166;8.624;2022-09-09T00:59:55;99894.00;;;17.40
11728;BMP180;5920;49.166;8.624;2022-09-09T01:02:27;99884.00;;;17.50
11728;BMP180;5920;49.166;8.624;2022-09-09T01:04:54;99888.00;;;17.50
11728;BMP180;5920;49.166;8.624;2022-09-09T01:07:25;99892.00;;;17.60
11728;BMP180;5920;49.166;8.624;2022-09-09T01:09:52;99894.00;;;17.60
11728;BMP180;5920;49.166;8.624;2022-09-09T01:12:24;99884.00;;;17.60
11728;BMP180;5920;49.166;8.624;2022-09-09T01:14:53;99880.00;;;17.70
11728;BMP180;5920;49.166;8.624;2022-09-09T01:17:23;99874.00;;;17.70
11728;BMP180;5920;49.166;8.624;2022-09-09T01:19:55;99867.00;;;17.70
11728;BMP180;5920;49.166;8.624;2022-09-09T01:22:28;99880.00;;;17.80
11728;BMP180;5920;49.166;8.624;2022-09-09T01:25:07;99883.00;;;17.70
11728;BMP180;5920;49.166;8.624;2022-09-09T01:27:39;99894.00;;;17.70
11728;BMP180;5920;49.166;8.624;2022-09-09T01:30:07;99899.00;;;17.80
11728;BMP180;5920;49.166;8.624;2022-09-09T01:32:39;99899.00;;;17.80
11728;BMP180;5920;49.166;8.624;2022-09-09T01:35:07;99907.00;;;17.70
11728;BMP180;5920;49.166;8.624;2022-09-09T01:37:33;99898.00;;;17.70
11728;BMP180;5920;49.166;8.624;2022-09-09T01:40:00;99901.00;;;17.60
11728;BMP180;5920;49.166;8.624;2022-09-09T01:42:26;99901.00;;;17.60
11728;BMP180;5920;49.166;8.624;2022-09-09T01:44:54;99912.00;;;17.80
11728;BMP180;5920;49.166;8.624;2022-09-09T01:47:20;99908.00;;;17.90
11728;BMP180;5920;49.166;8.624;2022-09-09T01:49:47;99910.00;;;18.00
11728;BMP180;5920;49.166;8.624;2022-09-09T01:52:13;99910.00;;;18.10
11728;BMP180;5920;49.166;8.624;2022-09-09T01:54:39;99910.00;;;18.10
11728;BMP180;5920;49.166;8.624;2022-09-09T01:57:07;99901.00;;;18.20
11728;BMP180;5920;49.166;8.624;2022-09-09T01:59:41;99894.00;;;18.20
11728;BMP180;5920;49.166;8.624;2022-09-09T02:02:11;99901.00;;;18.30
11728;BMP180;5920;49.166;8.624;2022-09-09T02:04:40;99901.00;;;18.40
11728;BMP180;5920;49.166;8.624;2022-09-09T02:07:10;99890.00;;;18.40
11728;BMP180;5920;49.166;8.624;2022-09-09T02:09:40;99887.00;;;18.40
11728;BMP180;5920;49.166;8.624;2022-09-09T02:12:08;99892.00;;;18.40
11728;BMP180;5920;49.166;8.624;2022-09-09T02:14:38;99897.00;;;18.40
11728;BMP180;5920;49.166;8.624;2022-09-09T02:17:06;99890.00;;;18.40
11728;BMP180;5920;49.166;8.624;2022-09-09T02:19:35;99896.00;;;18.40
11728;BMP180;5920;49.166;8.624;2022-09-09T02:22:03;99897.00;;;18.40
11728;BMP180;5920;49.166;8.624;2022-09-09T02:24:30;99881.00;;;18.40
11728;BMP180;5920;49.166;8.624;2022-09-09T02:26:58;99867.00;;;18.40
11728;BMP180;5920;49.166;8.624;2022-09-09T02:29:28;99866.00;;;18.30
11728;BMP180;5920;49.166;8.624;2022-09-09T02:31:55;99870.00;;;18.10
11728;BMP180;5920;49.166;8.624;2022-09-09T02:34:24;99882.00;;;18.10
11728;BMP180;5920;49.166;8.624;2022-09-09T02:36:54;99880.00;;;18.10
11728;BMP180;5920;49.166;8.624;2022-09-09T02:39:21;99871.00;;;18.20
11728;BMP180;5920;49.166;8.624;2022-09-09T02:41:47;99881.00;;;18.20
11728;BMP180;5920;49.166;8.624;2022-09-09T02:44:14;99871.00;;;18.20
11728;BMP180;5920;49.166;8.624;2022-09-09T02:46:49;99871.00;;;18.30
11728;BMP180;5920;49.166;8.624;2022-09-09T02:49:20;99870.00;;;18.30
11728;BMP180;5920;49.166;8.624;2022-09-09T02:51:50;99869.00;;;18.40
11728;BMP180;5920;49.166;8.624;2022-09-09T02:54:22;99864.00;;;18.40
11728;BMP180;5920;49.166;8.624;2022-09-09T02:56:52;99857.00;;;18.40
11728;BMP180;5920;49.166;8.624;2022-09-09T02:59:19;99864.00;;;18.40
11728;BMP180;5920;49.166;8.624;2022-09-09T03:01:45;99867.00;;;18.50
11728;BMP180;5920;49.166;8.624;2022-09-09T03:04:12;99876.00;;;18.50
11728;BMP180;5920;49.166;8.624;2022-09-09T03:06:38;99875.00;;;18.60
11728;BMP180;5920;49.166;8.624;2022-09-09T03:09:04;99877.00;;;18.60
11728;BMP180;5920;49.166;8.624;2022-09-09T03:11:34;99869.00;;;18.60
11728;BMP180;5920;49.166;8.624;2022-09-09T03:14:01;99866.00;;;18.60
11728;BMP180;5920;49.166;8.624;2022-09-09T03:16:27;99864.00;;;18.60
11728;BMP180;5920;49.166;8.624;2022-09-09T03:18:54;99860.00;;;18.60
11728;BMP180;5920;49.166;8.624;2022-09-09T03:21:20;99859.00;;;18.60
11728;BMP180;5920;49.166;8.624;2022-09-09T03:23:46;99856.00;;;18.60
11728;BMP180;5920;49.166;8.624;2022-09-09T03:26:13;99854.00;;;18.60
11728;BMP180;5920;49.166;8.624;2022-09-09T03:28:41;99856.00;;;18.50
11728;BMP180;5920;49.166;8.624;2022-09-09T03:31:10;99867.00;;;18.50
11728;BMP180;5920;49.166;8.624;2022-09-09T03:33:36;99866.00;;;18.50
11728;BMP180;5920;49.166;8.624;2022-09-09T03:36:03;99879.00;;;18.50
11728;BMP180;5920;49.166;8.624;2022-09-09T03:38:29;99878.00;;;18.50
11728;BMP180;5920;49.166;8.624;2022-09-09T03:40:57;99873.00;;;18.50
11728;BMP180;5920;49.166;8.624;2022-09-09T03:43:23;99876.00;;;18.50
11728;BMP180;5920;49.166;8.624;2022-09-09T03:45:52;99870.00;;;18.40
11728;BMP180;5920;49.166;8.624;2022-09-09T03:48:22;99869.00;;;18.30
11728;BMP180;5920;49.166;8.624;2022-09-09T03:50:49;99871.00;;;18.30
11728;BMP180;5920;49.166;8.624;2022-09-09T03:53:16;99873.00;;;18.30
11728;BMP180;5920;49.166;8.624;2022-09-09T03:55:44;99876.00;;;18.30
11728;BMP180;5920;49.166;8.624;2022-09-09T03:58:11;99877.00;;;18.30
11728;BMP180;5920;49.166;8.624;2022-09-09T04:00:38;99873.00;;;18.40
11728;BMP180;5920;49.166;8.624;2022-09-09T04:03:08;99865.00;;;18.40
11728;BMP180;5920;49.166;8.624;2022-09-09T04:05:35;99867.00;;;18.40
11728;BMP180;5920;49.166;8.624;2022-09-09T04:08:04;99875.00;;;18.50
11728;BMP180;5920;49.166;8.624;2022-09-09T04:10:31;99876.00;;;18.50
11728;BMP180;5920;49.166;8.624;2022-09-09T04:12:57;99883.00;;;18.50
11728;BMP180;5920;49.166;8.624;2022-09-09T04:15:24;99882.00;;;18.50
11728;BMP180;5920;49.166;8.624;2022-09-09T04:17:51;99883.00;;;18.50
11728;BMP180;5920;49.166;8.624;2022-09-09T04:20:19;99883.00;;;18.50
11728;BMP180;5920;49.166;8.624;2022-09-09T04:22:45;99894.00;;;18.50
11728;BMP180;5920;49.166;8.624;2022-09-09T04:25:11;99895.00;;;18.50
11728;BMP180;5920;49.166;8.624;2022-09-09T04:27:38;99896.00;;;18.50
11728;BMP180;5920;49.166;8.624;2022-09-09T04:30:04;99888.00;;;18.40
11728;BMP180;5920;49.166;8.624;2022-09-09T04:32:32;99902.00;;;18.50
11728;BMP180;5920;49.166;8.624;2022-09-09T04:34:58;99903.00;;;18.50
11728;BMP180;5920;49.166;8.624;2022-09-09T04:37:26;99905.00;;;18.40
11728;BMP180;5920;49.166;8.624;2022-09-09T04:39:52;99898.00;;;18.40
11728;BMP180;5920;49.166;8.624;2022-09-09T04:42:19;99907.00;;;18.50
11728;BMP180;5920;49.166;8.624;2022-09-09T04:44:45;99909.00;;;18.50
11728;BMP180;5920;49.166;8.624;2022-09-09T04:47:11;99912.00;;;18.50
11728;BMP180;5920;49.166;8.624;2022-09-09T04:49:39;99911.00;;;18.50
11728;BMP180;5920;49.166;8.624;2022-09-09T04:52:06;99910.00;;;18.50
11728;BMP180;5920;49.166;8.624;2022-09-09T04:54:34;99913.00;;;18.50
11728;BMP180;5920;49.166;8.624;2022-09-09T04:57:00;99912.00;;;18.50
11728;BMP180;5920;49.166;8.624;2022-09-09T04:59:27;99918.00;;;18.50
11728;BMP180;5920;49.166;8.624;2022-09-09T05:01:53;99915.00;;;18.50
11728;BMP180;5920;49.166;8.624;2022-09-09T05:04:20;99921.00;;;18.50
11728;BMP180;5920;49.166;8.624;2022-09-09T05:06:46;99919.00;;;18.50
11728;BMP180;5920;49.166;8.624;2022-09-09T05:09:13;99925.00;;;18.60
11728;BMP180;5920;49.166;8.624;2022-09-09T05:11:41;99925.00;;;18.60
11728;BMP180;5920;49.166;8.624;2022-09-09T05:14:07;99927.00;;;18.60
11728;BMP180;5920;49.166;8.624;2022-09-09T05:16:34;99924.00;;;18.60
11728;BMP180;5920;49.166;8.624;2022-09-09T05:19:00;99925.00;;;18.60
11728;BMP180;5920;49.166;8.624;2022-09-09T05:21:28;99928.00;;;18.60
11728;BMP180;5920;49.166;8.624;2022-09-09T05:23:55;99935.00;;;18.70
11728;BMP180;5920;49.166;8.624;2022-09-09T05:26:22;99929.00;;;18.70
11728;BMP180;5920;49.166;8.624;2022-09-09T05:28:50;99931.00;;;18.70
11728;BMP180;5920;49.166;8.624;2022-09-09T05:31:17;99933.00;;;18.80
11728;BMP180;5920;49.166;8.624;2022-09-09T05:33:45;99929.00;;;18.90
11728;BMP180;5920;49.166;8.624;2022-09-09T05:36:13;99935.00;;;19.00
11728;BMP180;5920;49.166;8.624;2022-09-09T05:38:40;99937.00;;;19.00
11728;BMP180;5920;49.166;8.624;2022-09-09T05:41:07;99936.00;;;19.00
11728;BMP180;5920;49.166;8.624;2022-09-09T05:43:34;99935.00;;;19.10
11728;BMP180;5920;49.166;8.624;2022-09-09T05:46:03;99936.00;;;19.20
11728;BMP180;5920;49.166;8.624;2022-09-09T05:48:30;99938.00;;;19.40
11728;BMP180;5920;49.166;8.624;2022-09-09T05:50:57;99932.00;;;19.50
11728;BMP180;5920;49.166;8.624;2022-09-09T05:53:23;99930.00;;;19.50
11728;BMP180;5920;49.166;8.624;2022-09-09T05:55:50;99928.00;;;19.70
11728;BMP180;5920;49.166;8.624;2022-09-09T05:58:17;99939.00;;;19.80
11728;BMP180;5920;49.166;8.624;2022-09-09T06:00:43;99933.00;;;19.80
11728;BMP180;5920;49.166;8.624;2022-09-09T06:03:11;99941.00;;;19.80
11728;BMP180;5920;49.166;8.624;2022-09-09T06:05:38;99944.00;;;19.80
11728;BMP180;5920;49.166;8.624;2022-09-09T06:08:04;99929.00;;;19.80
11728;BMP180;5920;49.166;8.624;2022-09-09T06:10:32;99940.00;;;19.90
11728;BMP180;5920;49.166;8.624;2022-09-09T06:12:59;99942.00;;;19.90
11728;BMP180;5920;49.166;8.624;2022-09-09T06:15:25;99940.00;;;20.00
11728;BMP180;5920;49.166;8.624;2022-09-09T06:17:54;99939.00;;;20.10
11728;BMP180;5920;49.166;8.624;2022-09-09T06:20:21;99947.00;;;20.40
11728;BMP180;5920;49.166;8.624;2022-09-09T06:22:48;99951.00;;;20.80
11728;BMP180;5920;49.166;8.624;2022-09-09T06:25:14;99948.00;;;21.10
11728;BMP180;5920;49.166;8.624;2022-09-09T06:27:40;99953.00;;;21.30
11728;BMP180;5920;49.166;8.624;2022-09-09T06:30:08;99952.00;;;21.30
11728;BMP180;5920;49.166;8.624;2022-09-09T06:32:34;99948.00;;;21.30
11728;BMP180;5920;49.166;8.624;2022-09-09T06:35:03;99957.00;;;21.30
11728;BMP180;5920;49.166;8.624;2022-09-09T06:37:31;99958.00;;;21.20
11728;BMP180;5920;49.166;8.624;2022-09-09T06:39:57;99955.00;;;21.20
11728;BMP180;5920;49.166;8.624;2022-09-09T06:42:23;99949.00;;;21.10
11728;BMP180;5920;49.166;8.624;2022-09-09T06:44:50;99959.00;;;21.10
11728;BMP180;5920;49.166;8.624;2022-09-09T06:47:17;99961.00;;;21.10
11728;BMP180;5920;49.166;8.624;2022-09-09T06:49:43;99955.00;;;21.10
11728;BMP180;5920;49.166;8.624;2022-09-09T06:52:10;99961.00;;;21.20
11728;BMP180;5920;49.166;8.624;2022-09-09T06:54:38;99959.00;;;21.20
11728;BMP180;5920;49.166;8.624;2022-09-09T06:57:04;99961.00;;;21.20
11728;BMP180;5920;49.166;8.624;2022-09-09T06:59:32;99955.00;;;21.20
11728;BMP180;5920;49.166;8.624;2022-09-09T07:01:58;99950.00;;;21.20
11728;BMP180;5920;49.166;8.624;2022-09-09T07:04:24;99961.00;;;21.20
11728;BMP180;5920;49.166;8.624;2022-09-09T07:06:51;99960.00;;;21.20
11728;BMP180;5920;49.166;8.624;2022-09-09T07:09:17;99960.00;;;21.20
11728;BMP180;5920;49.166;8.624;2022-09-09T07:11:46;99957.00;;;21.20
11728;BMP180;5920;49.166;8.624;2022-09-09T07:14:12;99958.00;;;21.40
11728;BMP180;5920;49.166;8.624;2022-09-09T07:16:39;99952.00;;;21.60
11728;BMP180;5920;49.166;8.624;2022-09-09T07:19:05;99958.00;;;21.80
11728;BMP180;5920;49.166;8.624;2022-09-09T07:21:32;99958.00;;;22.10
11728;BMP180;5920;49.166;8.624;2022-09-09T07:23:59;99956.00;;;22.30
11728;BMP180;5920;49.166;8.624;2022-09-09T07:26:26;99953.00;;;22.30
11728;BMP180;5920;49.166;8.624;2022-09-09T07:28:54;99954.00;;;22.40
11728;BMP180;5920;49.166;8.624;2022-09-09T07:31:23;99953.00;;;22.70
11728;BMP180;5920;49.166;8.624;2022-09-09T07:33:50;99953.00;;;22.80
11728;BMP180;5920;49.166;8.624;2022-09-09T07:36:17;99958.00;;;23.00
11728;BMP180;5920;49.166;8.624;2022-09-09T07:38:47;99950.00;;;23.30
11728;BMP180;5920;49.166;8.624;2022-09-09T07:41:14;99958.00;;;23.60
11728;BMP180;5920;49.166;8.624;2022-09-09T07:43:43;99959.00;;;23.90
11728;BMP180;5920;49.166;8.624;2022-09-09T07:46:12;99964.00;;;24.20
11728;BMP180;5920;49.166;8.624;2022-09-09T07:48:38;99970.00;;;24.10
11728;BMP180;5920;49.166;8.624;2022-09-09T07:51:05;99963.00;;;24.00
11728;BMP180;5920;49.166;8.624;2022-09-09T07:53:32;99968.00;;;23.80
11728;BMP180;5920;49.166;8.624;2022-09-09T07:56:02;99966.00;;;23.60
11728;BMP180;5920;49.166;8.624;2022-09-09T07:58:28;99965.00;;;23.40
11728;BMP180;5920;49.166;8.624;2022-09-09T08:00:55;99978.00;;;23.30
11728;BMP180;5920;49.166;8.624;2022-09-09T08:03:24;99979.00;;;23.30
11728;BMP180;5920;49.166;8.624;2022-09-09T08:05:50;99972.00;;;23.70
11728;BMP180;5920;49.166;8.624;2022-09-09T08:08:16;99968.00;;;24.10
11728;BMP180;5920;49.166;8.624;2022-09-09T08:10:43;99975.00;;;24.50
11728;BMP180;5920;49.166;8.624;2022-09-09T08:13:09;99975.00;;;24.80
11728;BMP180;5920;49.166;8.624;2022-09-09T08:15:36;99966.00;;;25.00
11728;BMP180;5920;49.166;8.624;2022-09-09T08:18:02;99965.00;;;25.20
11728;BMP180;5920;49.166;8.624;2022-09-09T08:20:30;99962.00;;;25.30
11728;BMP180;5920;49.166;8.624;2022-09-09T08:22:57;99963.00;;;25.40
11728;BMP180;5920;49.166;8.624;2022-09-09T08:25:24;99968.00;;;25.60
11728;BMP180;5920;49.166;8.624;2022-09-09T08:27:50;99968.00;;;25.50
11728;BMP180;5920;49.166;8.624;2022-09-09T08:30:19;99981.00;;;25.30
11728;BMP180;5920;49.166;8.624;2022-09-09T08:32:45;99980.00;;;25.10
11728;BMP180;5920;49.166;8.624;2022-09-09T08:35:11;99992.00;;;24.80
11728;BMP180;5920;49.166;8.624;2022-09-09T08:37:39;100005.00;;;24.60
11728;BMP180;5920;49.166;8.624;2022-09-09T08:40:07;100009.00;;;24.40
11728;BMP180;5920;49.166;8.624;2022-09-09T08:42:35;100014.00;;;24.20
11728;BMP180;5920;49.166;8.624;2022-09-09T08:47:58;100000.00;;;23.70
11728;BMP180;5920;49.166;8.624;2022-09-09T08:50:27;100003.00;;;23.50
11728;BMP180;5920;49.166;8.624;2022-09-09T08:52:57;99999.00;;;23.40
11728;BMP180;5920;49.166;8.624;2022-09-09T08:55:28;100002.00;;;23.60
11728;BMP180;5920;49.166;8.624;2022-09-09T08:57:57;99990.00;;;24.00
11728;BMP180;5920;49.166;8.624;2022-09-09T09:00:27;100006.00;;;24.50
11728;BMP180;5920;49.166;8.624;2022-09-09T09:02:56;99999.00;;;24.80
11728;BMP180;5920;49.166;8.624;2022-09-09T09:05:26;100015.00;;;25.00
11728;BMP180;5920;49.166;8.624;2022-09-09T09:07:59;100001.00;;;25.20
11728;BMP180;5920;49.166;8.624;2022-09-09T09:10:37;100000.00;;;25.40
11728;BMP180;5920;49.166;8.624;2022-09-09T09:13:07;100004.00;;;25.60
11728;BMP180;5920;49.166;8.624;2022-09-09T09:15:36;99997.00;;;25.80
11728;BMP180;5920;49.166;8.624;2022-09-09T09:18:03;99993.00;;;26.00
11728;BMP180;5920;49.166;8.624;2022-09-09T09:20:31;99995.00;;;26.10
11728;BMP180;5920;49.166;8.624;2022-09-09T09:23:02;99991.00;;;26.10
11728;BMP180;5920;49.166;8.624;2022-09-09T09:25:31;99970.00;;;26.20
11728;BMP180;5920;49.166;8.624;2022-09-09T09:28:02;99976.00;;;26.30
11728;BMP180;5920;49.166;8.624;2022-09-09T09:30:33;99984.00;;;26.40
11728;BMP180;5920;49.166;8.624;2022-09-09T09:33:01;99982.00;;;26.40
11728;BMP180;5920;49.166;8.624;2022-09-09T09:35:29;99990.00;;;26.20
11728;BMP180;5920;49.166;8.624;2022-09-09T09:37:55;99993.00;;;25.90
11728;BMP180;5920;49.166;8.624;2022-09-09T09:40:23;99993.00;;;25.70
11728;BMP180;5920;49.166;8.624;2022-09-09T09:42:51;99989.00;;;25.70
11728;BMP180;5920;49.166;8.624;2022-09-09T09:45:20;99987.00;;;25.80
11728;BMP180;5920;49.166;8.624;2022-09-09T09:48:00;99987.00;;;25.80
11728;BMP180;5920;49.166;8.624;2022-09-09T09:50:30;99993.00;;;25.70
11728;BMP180;5920;49.166;8.624;2022-09-09T09:52:57;99994.00;;;25.70
11728;BMP180;5920;49.166;8.624;2022-09-09T09:55:25;99996.00;;;25.60
11728;BMP180;5920;49.166;8.624;2022-09-09T09:57:52;99997.00;;;25.60
11728;BMP180;5920;49.166;8.624;2022-09-09T10:00:19;99997.00;;;25.60
11728;BMP180;5920;49.166;8.624;2022-09-09T10:02:46;99993.00;;;25.60
11728;BMP180;5920;49.166;8.624;2022-09-09T10:05:14;99995.00;;;25.40
11728;BMP180;5920;49.166;8.624;2022-09-09T10:07:41;100000.00;;;25.20
11728;BMP180;5920;49.166;8.624;2022-09-09T10:10:09;99996.00;;;25.10
11728;BMP180;5920;49.166;8.624;2022-09-09T10:12:42;99994.00;;;24.90
11728;BMP180;5920;49.166;8.624;2022-09-09T10:15:18;99999.00;;;24.80
11728;BMP180;5920;49.166;8.624;2022-09-09T10:17:51;100003.00;;;24.70
11728;BMP180;5920;49.166;8.624;2022-09-09T10:20:23;100004.00;;;24.50
11728;BMP180;5920;49.166;8.624;2022-09-09T10:22:57;99991.00;;;24.50
11728;BMP180;5920;49.166;8.624;2022-09-09T10:25:34;99993.00;;;24.70
11728;BMP180;5920;49.166;8.624;2022-09-09T10:28:14;99986.00;;;24.80
11728;BMP180;5920;49.166;8.624;2022-09-09T10:30:45;99990.00;;;25.00
11728;BMP180;5920;49.166;8.624;2022-09-09T10:33:19;99981.00;;;25.10
11728;BMP180;5920;49.166;8.624;2022-09-09T10:35:48;99986.00;;;25.20
11728;BMP180;5920;49.166;8.624;2022-09-09T10:38:19;99979.00;;;25.20
11728;BMP180;5920;49.166;8.624;2022-09-09T10:40:59;99978.00;;;25.30
11728;BMP180;5920;49.166;8.624;2022-09-09T10:43:36;99975.00;;;25.50
11728;BMP180;5920;49.166;8.624;2022-09-09T10:46:06;99972.00;;;25.60
11728;BMP180;5920;49.166;8.624;2022-09-09T10:48:40;99968.00;;;25.80
11728;BMP180;5920;49.166;8.624;2022-09-09T10:51:17;99968.00;;;25.90
11728;BMP180;5920;49.166;8.624;2022-09-09T10:53:50;99968.00;;;25.90
11728;BMP180;5920;49.166;8.624;2022-09-09T10:56:18;99962.00;;;26.00
11728;BMP180;5920;49.166;8.624;2022-09-09T10:58:48;99969.00;;;26.00
11728;BMP180;5920;49.166;8.624;2022-09-09T11:01:18;99973.00;;;26.10
11728;BMP180;5920;49.166;8.624;2022-09-09T11:03:47;99969.00;;;26.20
11728;BMP180;5920;49.166;8.624;2022-09-09T11:06:16;99968.00;;;26.30
11728;BMP180;5920;49.166;8.624;2022-09-09T11:08:44;99970.00;;;26.30
11728;BMP180;5920;49.166;8.624;2022-09-09T11:11:13;99962.00;;;26.40
11728;BMP180;5920;49.166;8.624;2022-09-09T11:13:42;99971.00;;;26.30
11728;BMP180;5920;49.166;8.624;2022-09-09T11:16:15;99968.00;;;26.20
11728;BMP180;5920;49.166;8.624;2022-09-09T11:18:42;99975.00;;;26.10
11728;BMP180;5920;49.166;8.624;2022-09-09T11:21:11;99969.00;;;26.00
11728;BMP180;5920;49.166;8.624;2022-09-09T11:23:40;99969.00;;;26.00
11728;BMP180;5920;49.166;8.624;2022-09-09T11:26:10;99961.00;;;26.00
11728;BMP180;5920;49.166;8.624;2022-09-09T11:28:41;99970.00;;;25.90
11728;BMP180;5920;49.166;8.624;2022-09-09T11:31:20;99967.00;;;25.80
11728;BMP180;5920;49.166;8.624;2022-09-09T11:33:51;99968.00;;;25.70
11728;BMP180;5920;49.166;8.624;2022-09-09T11:36:35;99965.00;;;25.60
11728;BMP180;5920;49.166;8.624;2022-09-09T11:39:07;99963.00;;;25.50
11728;BMP180;5920;49.166;8.624;2022-09-09T11:41:39;99958.00;;;25.40
11728;BMP180;5920;49.166;8.624;2022-09-09T11:44:09;99957.00;;;25.40
11728;BMP180;5920;49.166;8.624;2022-09-09T11:46:38;99949.00;;;25.40
11728;BMP180;5920;49.166;8.624;2022-09-09T11:49:06;99947.00;;;25.40
11728;BMP180;5920;49.166;8.624;2022-09-09T11:51:33;99934.00;;;25.50
11728;BMP180;5920;49.166;8.624;2022-09-09T11:54:01;99932.00;;;25.50
11728;BMP180;5920;49.166;8.624;2022-09-09T11:56:28;99929.00;;;25.50
11728;BMP180;5920;49.166;8.624;2022-09-09T11:59:00;99927.00;;;25.50
11728;BMP180;5920;49.166;8.624;2022-09-09T12:01:33;99932.00;;;25.50
11728;BMP180;5920;49.166;8.624;2022-09-09T12:04:15;99932.00;;;25.40
11728;BMP180;5920;49.166;8.624;2022-09-09T12:06:43;99930.00;;;25.30
11728;BMP180;5920;49.166;8.624;2022-09-09T12:09:15;99917.00;;;25.30
11728;BMP180;5920;49.166;8.624;2022-09-09T12:11:43;99923.00;;;25.20
11728;BMP180;5920;49.166;8.624;2022-09-09T12:14:18;99927.00;;;25.10
11728;BMP180;5920;49.166;8.624;2022-09-09T12:16:46;99927.00;;;25.10
11728;BMP180;5920;49.166;8.624;2022-09-09T12:19:15;99925.00;;;25.10
11728;BMP180;5920;49.166;8.624;2022-09-09T12:21:44;99927.00;;;25.10
11728;BMP180;5920;49.166;8.624;2022-09-09T12:24:14;99927.00;;;25.00
11728;BMP180;5920;49.166;8.624;2022-09-09T12:26:43;99925.00;;;25.10
11728;BMP180;5920;49.166;8.624;2022-09-09T12:29:16;99930.00;;;25.10
11728;BMP180;5920;49.166;8.624;2022-09-09T12:31:51;99925.00;;;25.10
11728;BMP180;5920;49.166;8.624;2022-09-09T12:34:24;99930.00;;;25.10
11728;BMP180;5920;49.166;8.624;2022-09-09T12:36:54;99922.00;;;25.10
11728;BMP180;5920;49.166;8.624;2022-09-09T12:39:22;99926.00;;;25.10
11728;BMP180;5920;49.166;8.624;2022-09-09T12:41:51;99936.00;;;25.10
11728;BMP180;5920;49.166;8.624;2022-09-09T12:44:22;99942.00;;;25.00
11728;BMP180;5920;49.166;8.624;2022-09-09T12:46:49;99945.00;;;24.90
11728;BMP180;5920;49.166;8.624;2022-09-09T12:49:24;99945.00;;;24.70
11728;BMP180;5920;49.166;8.624;2022-09-09T12:51:52;99965.00;;;24.30
11728;BMP180;5920;49.166;8.624;2022-09-09T12:54:18;99965.00;;;24.00
11728;BMP180;5920;49.166;8.624;2022-09-09T12:56:45;99962.00;;;23.90
11728;BMP180;5920;49.166;8.624;2022-09-09T12:59:17;99971.00;;;23.80
11728;BMP180;5920;49.166;8.624;2022-09-09T13:01:54;99968.00;;;23.70
11728;BMP180;5920;49.166;8.624;2022-09-09T13:04:21;99968.00;;;23.60
11728;BMP180;5920;49.166;8.624;2022-09-09T13:06:49;99975.00;;;23.50
11728;BMP180;5920;49.166;8.624;2022-09-09T13:09:17;99970.00;;;23.40
11728;BMP180;5920;49.166;8.624;2022-09-09T13:11:44;99975.00;;;23.40
11728;BMP180;5920;49.166;8.624;2022-09-09T13:14:13;99968.00;;;23.30
11728;BMP180;5920;49.166;8.624;2022-09-09T13:16:54;99973.00;;;23.20
11728;BMP180;5920;49.166;8.624;2022-09-09T13:19:21;99986.00;;;23.10
11728;BMP180;5920;49.166;8.624;2022-09-09T13:21:52;99998.00;;;22.90
11728;BMP180;5920;49.166;8.624;2022-09-09T13:24:25;99986.00;;;22.80
11728;BMP180;5920;49.166;8.624;2022-09-09T13:26:54;99986.00;;;22.50
11728;BMP180;5920;49.166;8.624;2022-09-09T13:29:21;99982.00;;;22.40
11728;BMP180;5920;49.166;8.624;2022-09-09T13:31:47;99982.00;;;22.30
11728;BMP180;5920;49.166;8.624;2022-09-09T13:34:25;99977.00;;;22.30
11728;BMP180;5920;49.166;8.624;2022-09-09T13:36:59;99992.00;;;22.20
11728;BMP180;5920;49.166;8.624;2022-09-09T13:39:27;99982.00;;;22.20
11728;BMP180;5920;49.166;8.624;2022-09-09T13:41:54;99971.00;;;22.20
11728;BMP180;5920;49.166;8.624;2022-09-09T13:44:23;99970.00;;;22.20
11728;BMP180;5920;49.166;8.624;2022-09-09T13:46:59;99957.00;;;22.30
11728;BMP180;5920;49.166;8.624;2022-09-09T13:49:27;99955.00;;;22.40
11728;BMP180;5920;49.166;8.624;2022-09-09T13:52:04;99948.00;;;22.50
11728;BMP180;5920;49.166;8.624;2022-09-09T13:54:31;99946.00;;;22.50
11728;BMP180;5920;49.166;8.624;2022-09-09T13:56:57;99926.00;;;22.50
11728;BMP180;5920;49.166;8.624;2022-09-09T13:59:24;99934.00;;;22.50
11728;BMP180;5920;49.166;8.624;2022-09-09T14:01:52;99923.00;;;22.60
11728;BMP180;5920;49.166;8.624;2022-09-09T14:04:19;99927.00;;;22.70
11728;BMP180;5920;49.166;8.624;2022-09-09T14:06:47;99922.00;;;22.70
11728;BMP180;5920;49.166;8.624;2022-09-09T14:09:17;99922.00;;;22.70
11728;BMP180;5920;49.166;8.624;2022-09-09T14:11:44;99920.00;;;22.70
11728;BMP180;5920;49.166;8.624;2022-09-09T14:14:11;99917.00;;;22.60
11728;BMP180;5920;49.166;8.624;2022-09-09T14:16:37;99922.00;;;22.50
11728;BMP180;5920;49.166;8.624;2022-09-09T14:19:04;99935.00;;;22.40
11728;BMP180;5920;49.166;8.624;2022-09-09T14:21:30;99942.00;;;22.30
11728;BMP180;5920;49.166;8.624;2022-09-09T14:23:57;99944.00;;;22.00
11728;BMP180;5920;49.166;8.624;2022-09-09T14:26:25;99940.00;;;21.90
11728;BMP180;5920;49.166;8.624;2022-09-09T14:28:54;99945.00;;;21.80
11728;BMP180;5920;49.166;8.624;2022-09-09T14:31:21;99950.00;;;21.90
11728;BMP180;5920;49.166;8.624;2022-09-09T14:33:47;99949.00;;;21.80